Time;durP1;ratioP1;P1;durP2;ratioP2;P2;SDS_P1;SDS_P2;PMS_P1;PMS_P2;Temp;Humidity;BMP_temperature;BMP_pressure;BME280_temperature;BME280_humidity;BME280_pressure;Samples;Min_cycle;Max_cycle;Signal;HPM_P1;HPM_P2
2021/08/16 00:00:24;;;;;;;4.18;3.25;;;;;;;28.17;42.71;101308.97;144992;564;6002;-80
2021/08/16 00:02:51;;;;;;;4.40;3.42;;;;;;;28.15;42.79;101308.16;144992;575;6002;-80
2021/08/16 00:05:17;;;;;;;5.47;3.10;;;;;;;28.06;42.78;101298.66;144992;596;6002;-80
2021/08/16 00:07:45;;;;;;;4.07;3.22;;;;;;;28.06;42.68;101304.00;144992;731;6002;-80
2021/08/16 00:10:15;;;;;;;4.15;3.47;;;;;;;28.06;42.70;101301.31;144992;598;6002;-80
2021/08/16 00:12:42;;;;;;;5.65;2.80;;;;;;;28.00;42.75;101304.22;144992;563;6002;-80
2021/08/16 00:15:10;;;;;;;4.30;3.10;;;;;;;27.92;42.62;101303.56;144992;571;6002;-79
2021/08/16 00:17:36;;;;;;;3.85;3.08;;;;;;;27.93;42.86;101302.66;144992;592;6002;-80
2021/08/16 00:20:04;;;;;;;3.95;3.10;;;;;;;27.85;42.93;101301.13;144992;583;6002;-79
2021/08/16 00:22:30;;;;;;;4.75;3.42;;;;;;;27.86;42.95;101299.31;144992;603;6002;-79
2021/08/16 00:24:57;;;;;;;3.90;3.05;;;;;;;27.87;42.79;101298.37;144992;628;6002;-81
2021/08/16 00:27:24;;;;;;;5.70;3.05;;;;;;;27.87;42.89;101296.59;144992;585;6002;-79
2021/08/16 00:29:51;;;;;;;5.75;3.00;;;;;;;27.91;42.94;101299.16;144992;569;6002;-82
2021/08/16 00:32:17;;;;;;;3.67;3.08;;;;;;;27.95;42.78;101301.72;144992;669;6002;-80
2021/08/16 00:34:43;;;;;;;5.37;3.00;;;;;;;27.96;42.77;101297.25;144992;598;6002;-79
2021/08/16 00:37:10;;;;;;;3.78;3.10;;;;;;;27.98;42.65;101304.28;144992;583;6002;-80
2021/08/16 00:39:36;;;;;;;5.25;3.10;;;;;;;28.00;42.60;101296.22;144992;591;6002;-79
2021/08/16 00:42:09;;;;;;;3.58;3.10;;;;;;;27.97;42.59;101294.53;144992;653;6002;-80
2021/08/16 00:44:35;;;;;;;4.32;3.30;;;;;;;27.96;42.53;101297.25;144992;563;6002;-78
2021/08/16 00:47:02;;;;;;;4.37;2.97;;;;;;;27.94;42.55;101296.41;144992;587;6002;-79
2021/08/16 00:49:29;;;;;;;4.47;3.03;;;;;;;27.89;42.53;101291.22;144992;569;6002;-80
2021/08/16 00:51:55;;;;;;;6.53;3.40;;;;;;;27.80;41.93;101299.53;144991;589;6002;-80
2021/08/16 00:54:22;;;;;;;3.70;3.40;;;;;;;27.74;42.82;101295.25;144991;652;6002;-80
2021/08/16 00:56:49;;;;;;;4.40;3.30;;;;;;;27.73;42.70;101298.84;144992;614;6002;-80
2021/08/16 00:59:18;;;;;;;12.15;3.55;;;;;;;27.71;42.66;101292.69;144992;569;6002;-80
2021/08/16 01:01:45;;;;;;;5.90;3.20;;;;;;;27.68;42.59;101296.34;144992;569;6002;-79
2021/08/16 01:04:12;;;;;;;4.85;3.08;;;;;;;27.70;42.47;101306.97;144992;573;6002;-79
2021/08/16 01:06:38;;;;;;;3.22;2.83;;;;;;;27.72;42.32;101306.91;144992;596;6002;-79
2021/08/16 01:09:04;;;;;;;4.35;3.00;;;;;;;27.69;42.30;101298.06;144992;605;6003;-79
2021/08/16 01:11:33;;;;;;;6.35;3.22;;;;;;;27.71;42.11;101292.69;144992;592;6002;-80
2021/08/16 01:13:59;;;;;;;4.15;3.30;;;;;;;27.73;42.10;101290.84;144992;570;6002;-79
2021/08/16 01:16:26;;;;;;;4.80;3.17;;;;;;;27.72;41.90;101288.25;144992;577;6003;-81
2021/08/16 01:18:52;;;;;;;2.85;2.62;;;;;;;27.73;41.84;101290.84;144992;660;6002;-80
2021/08/16 01:21:20;;;;;;;3.12;2.70;;;;;;;27.76;41.50;101289.84;144992;590;6002;-80
2021/08/16 01:23:47;;;;;;;5.87;3.20;;;;;;;27.76;41.61;101295.19;144992;647;6002;-79
2021/08/16 01:26:14;;;;;;;4.65;2.97;;;;;;;27.74;41.45;101292.56;144992;703;6002;-80
2021/08/16 01:28:41;;;;;;;3.97;3.03;;;;;;;27.64;41.66;101297.34;144992;570;6002;-80
2021/08/16 01:31:09;;;;;;;5.28;3.20;;;;;;;27.65;41.53;101295.56;144992;581;6002;-79
2021/08/16 01:33:38;;;;;;;3.30;2.72;;;;;;;27.64;41.54;101291.16;144992;577;6002;-78
2021/08/16 01:36:05;;;;;;;4.90;3.05;;;;;;;27.65;41.50;101287.56;144992;580;6002;-79
2021/08/16 01:38:34;;;;;;;4.05;3.00;;;;;;;27.59;41.62;101295.75;144992;618;6002;-79
2021/08/16 01:41:01;;;;;;;7.03;3.67;;;;;;;27.57;41.65;101292.25;144992;583;6002;-79
2021/08/16 01:43:27;;;;;;;5.82;3.60;;;;;;;27.56;41.94;101301.19;144992;621;6002;-81
2021/08/16 01:45:54;;;;;;;7.53;3.50;;;;;;;27.59;41.92;101303.78;144992;578;6002;-80
2021/08/16 01:48:20;;;;;;;5.93;3.97;;;;;;;27.61;42.08;101294.78;144992;734;6002;-79
2021/08/16 01:50:47;;;;;;;5.22;3.60;;;;;;;27.61;42.05;101286.78;144992;617;6002;-80
2021/08/16 01:53:14;;;;;;;4.55;3.35;;;;;;;27.61;42.23;101302.78;144991;579;6002;-80
2021/08/16 01:55:41;;;;;;;4.10;3.50;;;;;;;27.61;42.28;101289.44;144992;570;6002;-80
2021/08/16 01:58:09;;;;;;;5.45;3.67;;;;;;;27.62;42.42;101293.88;144992;586;6002;-80
2021/08/16 02:00:36;;;;;;;5.47;3.70;;;;;;;27.64;42.37;101291.16;144992;586;6002;-80
2021/08/16 02:03:03;;;;;;;4.85;3.60;;;;;;;27.65;42.26;101288.44;144992;574;6002;-79
2021/08/16 02:05:29;;;;;;;4.18;3.20;;;;;;;27.66;42.22;101286.62;144992;683;6002;-80
2021/08/16 02:08:00;;;;;;;4.07;3.17;;;;;;;27.66;41.84;101294.63;144992;626;6002;-79
2021/08/16 02:10:26;;;;;;;4.28;3.35;;;;;;;27.63;42.06;101284.06;144992;660;6002;-79
2021/08/16 02:12:53;;;;;;;5.97;3.28;;;;;;;27.63;41.94;101289.38;144992;621;6002;-80
2021/08/16 02:15:19;;;;;;;8.95;3.30;;;;;;;27.57;41.84;101279.81;144992;585;6002;-80
2021/08/16 02:17:46;;;;;;;5.40;3.35;;;;;;;27.50;42.00;101279.16;144992;576;6002;-80
2021/08/16 02:20:12;;;;;;;4.22;3.12;;;;;;;27.50;41.74;101275.59;144992;579;6002;-80
2021/08/16 02:22:39;;;;;;;3.58;2.92;;;;;;;27.51;42.07;101283.53;144992;600;6002;-79
2021/08/16 02:25:06;;;;;;;3.72;3.00;;;;;;;27.51;41.89;101283.53;144992;571;6002;-81
2021/08/16 02:27:33;;;;;;;4.70;3.12;;;;;;;27.51;41.80;101286.22;144992;625;6002;-80
2021/08/16 02:30:01;;;;;;;4.15;3.03;;;;;;;27.52;41.82;101295.06;144992;563;6002;-79
2021/08/16 02:32:27;;;;;;;3.50;2.78;;;;;;;27.53;41.69;101293.28;144992;566;6002;-80
2021/08/16 02:34:53;;;;;;;3.45;2.60;;;;;;;27.52;41.54;101287.06;144992;594;6002;-80
2021/08/16 02:37:20;;;;;;;5.72;2.97;;;;;;;27.45;41.63;101296.19;144991;578;6002;-80
2021/08/16 02:39:46;;;;;;;3.10;2.78;;;;;;;27.39;41.60;101289.25;144992;582;6002;-80
2021/08/16 02:42:13;;;;;;;5.75;2.92;;;;;;;27.39;41.34;101291.91;144992;563;6002;-79
2021/08/16 02:44:39;;;;;;;5.75;2.87;;;;;;;27.38;41.38;101290.19;144992;738;6002;-80
2021/08/16 02:47:06;;;;;;;3.08;2.78;;;;;;;27.41;41.49;101292.75;144992;714;6002;-80
2021/08/16 02:49:32;;;;;;;3.12;2.65;;;;;;;27.42;41.38;101291.81;144992;565;6002;-80
2021/08/16 02:51:58;;;;;;;3.33;2.60;;;;;;;27.43;41.21;101290.06;144992;587;6002;-81
2021/08/16 02:54:25;;;;;;;3.97;2.90;;;;;;;27.43;41.08;101290.06;144992;564;6002;-79
2021/08/16 02:56:51;;;;;;;3.53;2.92;;;;;;;27.42;40.94;101291.81;144992;605;6002;-80
2021/08/16 02:59:18;;;;;;;3.35;2.83;;;;;;;27.42;40.95;101294.50;144992;583;6002;-80
2021/08/16 03:01:44;;;;;;;3.17;2.45;;;;;;;27.38;40.85;101295.53;144992;605;6002;-80
2021/08/16 03:04:11;;;;;;;4.78;2.95;;;;;;;27.36;41.19;101294.69;144992;607;6002;-80
2021/08/16 03:06:37;;;;;;;3.78;2.70;;;;;;;27.35;40.89;101295.63;144991;593;6002;-79
2021/08/16 03:09:04;;;;;;;4.62;2.92;;;;;;;27.33;40.73;101300.12;144992;709;6002;-81
2021/08/16 03:11:30;;;;;;;4.50;2.55;;;;;;;27.32;40.77;101306.38;144992;717;6002;-78
2021/08/16 03:13:57;;;;;;;6.30;2.80;;;;;;;27.31;40.61;101300.19;144991;575;6002;-79
2021/08/16 03:16:23;;;;;;;4.05;2.83;;;;;;;27.32;40.62;101301.03;144992;578;6002;-79
2021/08/16 03:18:50;;;;;;;3.12;2.67;;;;;;;27.32;40.45;101301.91;144992;567;6002;-80
2021/08/16 03:21:17;;;;;;;4.00;2.80;;;;;;;27.27;40.00;101298.50;144992;587;6002;-80
2021/08/16 03:23:43;;;;;;;4.03;2.90;;;;;;;27.22;40.41;101297.75;144991;578;6003;-79
2021/08/16 03:26:10;;;;;;;4.03;2.92;;;;;;;27.19;40.59;101307.63;144992;598;6002;-80
2021/08/16 03:28:37;;;;;;;4.53;3.10;;;;;;;27.17;40.88;101309.47;144992;563;6002;-79
2021/08/16 03:31:04;;;;;;;5.12;3.37;;;;;;;27.15;40.64;101321.06;144992;697;6002;-78
2021/08/16 03:33:31;;;;;;;6.20;2.92;;;;;;;27.17;40.54;101314.78;144992;582;6002;-79
2021/08/16 03:35:58;;;;;;;3.42;2.50;;;;;;;27.18;40.50;101314.75;144992;592;6002;-79
2021/08/16 03:38:27;;;;;;;5.20;3.15;;;;;;;27.20;40.55;101312.03;144992;585;6002;-79
2021/08/16 03:40:53;;;;;;;5.70;3.10;;;;;;;27.20;40.72;101320.91;144992;604;6002;-79
2021/08/16 03:43:19;;;;;;;4.68;3.30;;;;;;;27.20;40.58;101312.91;144992;589;6002;-79
2021/08/16 03:45:46;;;;;;;5.87;3.17;;;;;;;27.22;40.16;101310.19;144992;580;6002;-79
2021/08/16 03:48:12;;;;;;;6.62;2.95;;;;;;;27.22;40.41;101311.09;144992;594;6002;-79
2021/08/16 03:50:39;;;;;;;9.90;4.80;;;;;;;27.21;40.48;101317.31;144992;565;6002;-80
2021/08/16 03:53:06;;;;;;;5.97;3.10;;;;;;;27.19;40.39;101312.94;144992;713;6002;-79
2021/08/16 03:55:32;;;;;;;6.15;3.30;;;;;;;27.18;40.41;101313.88;144992;578;6002;-79
2021/08/16 03:57:59;;;;;;;4.87;3.40;;;;;;;27.13;40.56;101312.22;144992;572;6002;-80
2021/08/16 04:00:25;;;;;;;4.32;2.87;;;;;;;27.10;40.66;101322.97;144992;563;6002;-79
2021/08/16 04:02:52;;;;;;;8.43;3.35;;;;;;;27.10;40.81;101316.78;144991;718;6002;-80
2021/08/16 04:05:18;;;;;;;5.78;3.25;;;;;;;27.10;40.54;101322.97;144992;600;6002;-78
2021/08/16 04:07:45;;;;;;;4.72;3.05;;;;;;;27.13;40.48;101322.03;144992;564;6003;-80
2021/08/16 04:10:13;;;;;;;4.35;3.33;;;;;;;27.14;40.57;101318.44;144992;579;6002;-79
2021/08/16 04:12:39;;;;;;;4.87;3.40;;;;;;;27.15;40.50;101320.16;144992;643;6002;-79
2021/08/16 04:15:14;;;;;;;4.55;3.58;;;;;;;27.17;40.24;101322.78;144992;566;6011;-80
2021/08/16 04:17:41;;;;;;;5.78;2.80;;;;;;;27.16;40.57;101321.94;144997;643;6002;-79
2021/08/16 04:20:09;;;;;;;8.80;3.78;;;;;;;27.16;40.65;101327.25;144992;638;6002;-80
2021/08/16 04:22:35;;;;;;;4.30;3.30;;;;;;;27.17;40.43;101322.78;144992;585;6002;-80
2021/08/16 04:25:04;;;;;;;7.40;3.20;;;;;;;27.18;40.55;101328.06;144992;599;6002;-80
2021/08/16 04:27:30;;;;;;;9.00;3.80;;;;;;;27.19;40.25;101326.28;144992;584;6002;-80
2021/08/16 04:29:59;;;;;;;3.50;3.20;;;;;;;27.19;40.24;101324.50;144992;591;6002;-80
2021/08/16 04:32:26;;;;;;;5.95;3.45;;;;;;;27.21;40.54;101324.47;144992;583;6002;-80
2021/08/16 04:34:52;;;;;;;3.92;3.10;;;;;;;27.23;40.33;101325.28;144992;653;6002;-80
2021/08/16 04:37:19;;;;;;;5.40;2.92;;;;;;;27.25;40.64;101323.44;144992;570;6002;-81
2021/08/16 04:39:46;;;;;;;4.95;3.47;;;;;;;27.25;40.62;101324.31;144992;599;6002;-79
2021/08/16 04:42:13;;;;;;;4.90;3.80;;;;;;;27.29;40.69;101325.94;144991;581;6002;-79
2021/08/16 04:44:39;;;;;;;4.22;3.50;;;;;;;27.32;40.80;101335.69;144992;595;6002;-79
2021/08/16 04:47:05;;;;;;;6.57;3.35;;;;;;;27.35;40.87;101330.28;144992;579;6002;-80
2021/08/16 04:49:32;;;;;;;6.70;3.35;;;;;;;27.38;40.81;101327.50;144992;569;6002;-80
2021/08/16 04:51:58;;;;;;;6.95;3.65;;;;;;;27.42;40.84;101338.94;144992;571;6002;-80
2021/08/16 04:54:25;;;;;;;4.07;3.47;;;;;;;27.46;40.88;101332.63;144992;582;6002;-80
2021/08/16 04:56:51;;;;;;;5.75;3.83;;;;;;;27.51;40.99;101336.00;144992;569;6002;-78
2021/08/16 04:59:18;;;;;;;5.93;3.45;;;;;;;27.60;41.09;101329.50;144992;591;6002;-79
2021/08/16 05:01:46;;;;;;;7.50;3.55;;;;;;;27.68;41.06;101335.47;144992;796;6002;-80
2021/08/16 05:04:13;;;;;;;6.03;3.45;;;;;;;27.76;41.18;101332.53;144993;594;6002;-79
2021/08/16 05:06:42;;;;;;;5.95;3.72;;;;;;;27.81;41.15;101347.47;144993;617;6002;-79
2021/08/16 05:09:09;;;;;;;6.35;3.58;;;;;;;27.85;41.19;101332.25;144993;641;6002;-80
2021/08/16 05:11:36;;;;;;;6.03;3.97;;;;;;;27.82;41.32;101343.91;144993;593;6002;-80
2021/08/16 05:14:03;;;;;;;7.25;3.92;;;;;;;27.84;41.13;101336.72;144993;575;6002;-79
2021/08/16 05:16:30;;;;;;;7.78;4.25;;;;;;;27.87;41.40;101338.37;144993;599;6002;-80
2021/08/16 05:18:56;;;;;;;13.88;3.92;;;;;;;27.90;41.34;101332.09;144993;600;6002;-80
2021/08/16 05:21:23;;;;;;;8.98;4.28;;;;;;;27.88;41.42;101340.16;144993;565;6002;-80
2021/08/16 05:23:50;;;;;;;13.50;4.40;;;;;;;27.90;41.57;101340.09;144992;596;6002;-80
2021/08/16 05:26:16;;;;;;;10.15;3.67;;;;;;;27.94;41.58;101348.00;144992;672;6002;-79
2021/08/16 05:28:43;;;;;;;9.20;3.67;;;;;;;27.98;41.49;101346.06;144993;563;6002;-80
2021/08/16 05:31:09;;;;;;;7.78;3.78;;;;;;;28.03;41.55;101352.13;144993;579;6002;-80
2021/08/16 05:33:36;;;;;;;6.70;4.40;;;;;;;28.03;41.35;101345.03;144993;582;6002;-80
2021/08/16 05:36:05;;;;;;;7.72;3.95;;;;;;;28.05;41.36;101347.62;144992;564;6002;-80
2021/08/16 05:38:31;;;;;;;6.85;3.72;;;;;;;28.09;41.39;101349.25;144992;754;6002;-80
2021/08/16 05:40:59;;;;;;;4.97;3.30;;;;;;;28.13;41.34;101348.25;144992;578;6002;-80
2021/08/16 05:43:25;;;;;;;7.90;3.80;;;;;;;28.16;41.20;101342.81;144992;593;6002;-80
2021/08/16 05:45:51;;;;;;;9.35;3.90;;;;;;;28.23;41.11;101341.66;144992;564;6002;-78
2021/08/16 05:48:18;;;;;;;5.53;3.55;;;;;;;28.30;41.14;101344.12;144992;587;6002;-79
2021/08/16 05:50:47;;;;;;;10.88;4.10;;;;;;;28.32;41.06;101339.63;144993;576;6002;-80
2021/08/16 05:53:14;;;;;;;10.95;4.12;;;;;;;28.31;41.00;101341.41;144993;596;6002;-79
2021/08/16 05:55:40;;;;;;;8.02;3.55;;;;;;;28.35;41.13;101348.38;144993;592;6002;-80
2021/08/16 05:58:07;;;;;;;6.20;3.20;;;;;;;28.42;41.20;101338.34;144993;577;6002;-80
2021/08/16 06:00:33;;;;;;;6.20;3.53;;;;;;;28.48;40.96;101335.47;144993;597;6002;-80
2021/08/16 06:03:00;;;;;;;6.15;3.55;;;;;;;28.55;40.89;101334.31;144993;569;6002;-80
2021/08/16 06:05:29;;;;;;;5.80;3.33;;;;;;;28.63;40.97;101335.88;144993;580;6002;-80
2021/08/16 06:07:56;;;;;;;4.80;3.62;;;;;;;28.69;40.86;101330.31;144993;564;6002;-81
2021/08/16 06:10:25;;;;;;;5.72;3.37;;;;;;;28.76;40.72;101332.72;144993;625;6002;-79
2021/08/16 06:12:51;;;;;;;5.70;3.03;;;;;;;28.83;40.77;101332.50;144993;625;6002;-79
2021/08/16 06:15:18;;;;;;;5.70;3.55;;;;;;;28.87;40.67;101337.69;144993;584;6002;-79
2021/08/16 06:17:47;;;;;;;6.43;3.67;;;;;;;28.94;40.72;101339.16;144993;671;6002;-79
2021/08/16 06:20:14;;;;;;;10.40;8.50;;;;;;;29.03;40.57;101342.41;144993;639;6002;-79
2021/08/16 06:22:40;;;;;;;9.25;6.30;;;;;;;29.11;40.52;101343.00;144993;612;6002;-81
2021/08/16 06:25:07;;;;;;;5.75;3.75;;;;;;;29.17;39.28;101337.41;144993;647;6002;-80
2021/08/16 06:27:34;;;;;;;6.93;3.95;;;;;;;29.19;40.33;101345.41;144993;565;6002;-79
2021/08/16 06:30:00;;;;;;;6.50;3.97;;;;;;;29.23;40.25;101342.56;144992;674;6002;-81
2021/08/16 06:32:26;;;;;;;6.85;4.22;;;;;;;29.34;39.90;101341.28;144993;591;6002;-80
2021/08/16 06:34:53;;;;;;;6.75;4.72;;;;;;;29.38;37.80;101341.13;144993;666;6002;-79
2021/08/16 06:37:19;;;;;;;4.50;3.35;;;;;;;29.38;39.95;101345.56;144993;571;6002;-79
2021/08/16 06:39:46;;;;;;;6.87;4.12;;;;;;;29.40;37.76;101344.59;144993;574;6002;-79
2021/08/16 06:42:12;;;;;;;6.12;5.10;;;;;;;29.35;39.91;101343.03;144993;563;6002;-79
2021/08/16 06:44:39;;;;;;;8.07;4.10;;;;;;;29.47;39.85;101342.53;144994;670;5002;-79
2021/08/16 06:47:05;;;;;;;6.35;3.80;;;;;;;29.57;39.60;101343.91;144994;563;5002;-79
2021/08/16 06:49:32;;;;;;;6.20;4.07;;;;;;;29.66;39.18;101338.19;144994;585;5002;-80
2021/08/16 06:51:58;;;;;;;6.00;3.60;;;;;;;29.61;39.02;101344.69;144994;569;5002;-79
2021/08/16 06:54:25;;;;;;;6.10;3.53;;;;;;;29.67;39.54;101347.97;144994;649;5002;-79
2021/08/16 06:56:51;;;;;;;5.03;3.15;;;;;;;29.61;38.66;101342.88;144994;574;5002;-80
2021/08/16 06:59:18;;;;;;;5.00;3.22;;;;;;;29.41;40.23;101345.47;144994;662;5002;-80
2021/08/16 07:01:44;;;;;;;5.25;3.45;;;;;;;29.27;40.35;101344.22;144994;615;5002;-81
2021/08/16 07:04:11;;;;;;;3.87;3.47;;;;;;;29.18;40.84;101354.34;144994;599;5002;-81
2021/08/16 07:06:37;;;;;;;5.47;3.70;;;;;;;29.35;40.83;101349.25;144994;584;5002;-79
2021/08/16 07:09:04;;;;;;;5.47;3.25;;;;;;;29.29;41.28;101349.50;144994;566;5002;-79
2021/08/16 07:11:30;;;;;;;3.60;3.20;;;;;;;29.35;41.13;101351.94;144994;608;5002;-79
2021/08/16 07:13:56;;;;;;;4.82;3.30;;;;;;;29.29;41.29;101357.50;144994;580;5003;-79
2021/08/16 07:16:23;;;;;;;5.20;3.65;;;;;;;29.35;41.16;101354.59;144994;593;5002;-77
2021/08/16 07:18:50;;;;;;;6.82;3.50;;;;;;;29.34;41.26;101360.88;144994;573;5002;-80
2021/08/16 07:21:16;;;;;;;5.00;3.30;;;;;;;29.31;41.32;101367.19;144994;607;5003;-80
2021/08/16 07:23:43;;;;;;;4.93;3.60;;;;;;;29.39;41.87;101358.03;144994;570;5002;-80
2021/08/16 07:26:10;;;;;;;4.68;3.67;;;;;;;29.39;41.98;101361.56;144994;618;5002;-79
2021/08/16 07:28:38;;;;;;;4.15;3.25;;;;;;;29.32;42.10;101368.09;144994;572;5002;-79
2021/08/16 07:31:05;;;;;;;5.97;3.17;;;;;;;29.22;42.60;101370.22;144994;588;5002;-78
2021/08/16 07:33:32;;;;;;;4.62;3.30;;;;;;;29.24;42.15;101360.38;144994;655;5002;-81
2021/08/16 07:35:58;;;;;;;6.30;3.28;;;;;;;29.26;42.16;101362.97;144994;593;5002;-78
2021/08/16 07:38:25;;;;;;;4.53;3.60;;;;;;;29.17;42.80;101358.81;144994;572;5002;-79
2021/08/16 07:40:51;;;;;;;5.95;3.47;;;;;;;29.29;42.45;101358.38;144994;581;5002;-79
2021/08/16 07:43:20;;;;;;;8.40;3.70;;;;;;;29.36;42.72;101360.81;144994;670;5002;-79
2021/08/16 07:45:50;;;;;;;5.15;3.42;;;;;;;29.41;42.96;101356.16;144994;715;5002;-79
2021/08/16 07:48:17;;;;;;;3.72;3.40;;;;;;;29.46;42.43;101359.50;144994;598;5002;-80
2021/08/16 07:50:44;;;;;;;4.65;3.50;;;;;;;29.49;42.79;101362.06;144994;627;5002;-80
2021/08/16 07:53:13;;;;;;;4.68;3.83;;;;;;;29.54;43.04;101357.44;144994;630;5002;-80
2021/08/16 07:55:39;;;;;;;3.92;3.28;;;;;;;29.54;43.14;101354.75;144994;573;5002;-81
2021/08/16 07:58:06;;;;;;;5.85;3.30;;;;;;;29.63;43.02;101350.81;144994;576;5002;-80
2021/08/16 08:00:34;;;;;;;3.95;3.20;;;;;;;29.57;42.67;101351.94;144994;598;5002;-81
2021/08/16 08:03:01;;;;;;;4.05;3.17;;;;;;;29.55;42.08;101352.94;144994;613;5002;-81
2021/08/16 08:05:27;;;;;;;4.05;3.33;;;;;;;29.55;42.14;101351.13;144994;643;5002;-81
2021/08/16 08:07:54;;;;;;;3.95;3.40;;;;;;;29.73;41.60;101351.31;144994;631;5002;-80
2021/08/16 08:10:21;;;;;;;5.43;3.58;;;;;;;29.79;42.53;101351.97;144994;588;5002;-81
2021/08/16 08:12:49;;;;;;;5.43;3.42;;;;;;;29.65;42.69;101355.19;144994;591;5002;-80
2021/08/16 08:15:16;;;;;;;4.60;3.53;;;;;;;29.60;42.93;101357.16;144994;579;5002;-81
2021/08/16 08:17:42;;;;;;;6.45;3.58;;;;;;;29.59;43.39;101359.91;144994;596;5002;-80
2021/08/16 08:20:10;;;;;;;4.22;3.55;;;;;;;29.67;43.57;101358.66;144993;734;5002;-78
2021/08/16 08:22:37;;;;;;;4.03;3.62;;;;;;;29.62;43.83;101358.00;144994;597;5002;-80
2021/08/16 08:25:04;;;;;;;5.00;3.55;;;;;;;29.52;44.55;101358.41;144994;599;5002;-81
2021/08/16 08:27:31;;;;;;;3.42;3.12;;;;;;;29.54;43.71;101349.41;144994;634;5002;-80
2021/08/16 08:29:57;;;;;;;6.10;3.30;;;;;;;29.54;43.49;101351.19;144994;582;5002;-80
2021/08/16 08:32:24;;;;;;;5.18;3.50;;;;;;;29.56;43.64;101362.69;144994;594;5002;-79
2021/08/16 08:34:50;;;;;;;4.18;3.10;;;;;;;29.54;44.12;101362.78;144994;615;5002;-80
2021/08/16 08:37:17;;;;;;;5.70;3.53;;;;;;;29.38;44.44;101359.84;144994;583;5002;-81
2021/08/16 08:39:46;;;;;;;5.43;3.83;;;;;;;29.58;44.18;101353.69;144994;583;5002;-80
2021/08/16 08:42:13;;;;;;;4.30;3.20;;;;;;;29.55;44.17;101358.28;144994;571;5002;-80
2021/08/16 08:44:40;;;;;;;5.03;3.40;;;;;;;29.71;43.32;101351.38;144994;583;5002;-81
2021/08/16 08:47:07;;;;;;;5.70;3.50;;;;;;;29.72;43.57;101362.97;144994;565;5002;-81
2021/08/16 08:49:34;;;;;;;4.25;3.28;;;;;;;29.82;43.14;101353.66;144994;596;5002;-81
2021/08/16 08:52:01;;;;;;;3.40;3.10;;;;;;;29.88;42.29;101357.91;144994;579;5002;-80
2021/08/16 08:54:28;;;;;;;5.85;3.17;;;;;;;29.77;40.94;101342.25;144994;631;5002;-79
2021/08/16 08:56:58;;;;;;;6.20;3.10;;;;;;;29.73;42.03;101343.28;144994;620;5002;-79
2021/08/16 08:59:25;;;;;;;6.10;3.20;;;;;;;29.91;40.85;101344.38;144994;569;5002;-80
2021/08/16 09:01:57;;;;;;;6.87;3.20;;;;;;;30.00;40.18;101346.66;144994;602;5002;-80
2021/08/16 09:04:24;;;;;;;6.40;3.62;;;;;;;29.96;40.52;101343.25;144994;611;5002;-79
2021/08/16 09:06:51;;;;;;;4.20;3.47;;;;;;;30.07;41.35;101339.25;144994;598;5002;-79
2021/08/16 09:09:18;;;;;;;4.60;3.37;;;;;;;30.10;41.41;101336.44;144994;628;5002;-80
2021/08/16 09:11:49;;;;;;;5.50;3.22;;;;;;;30.08;41.25;101341.00;144994;604;5002;-79
2021/08/16 09:14:16;;;;;;;3.65;3.08;;;;;;;29.98;41.59;101333.34;144994;583;5002;-80
2021/08/16 09:16:48;;;;;;;5.30;3.55;;;;;;;30.14;41.49;101338.91;144994;614;5002;-79
2021/08/16 09:19:24;;;;;;;3.60;2.97;;;;;;;30.15;41.43;101340.69;144994;635;5002;-80
2021/08/16 09:22:11;;;;;;;5.47;3.03;;;;;;;30.19;41.00;101328.03;144994;571;5002;-80
2021/08/16 09:24:38;;;;;;;3.42;2.70;;;;;;;30.23;40.59;101337.69;144994;573;5002;-80
2021/08/16 09:27:07;;;;;;;3.65;3.00;;;;;;;30.28;40.51;101322.28;144994;563;5002;-81
2021/08/16 09:29:33;;;;;;;4.47;3.15;;;;;;;30.26;41.28;101329.50;144994;564;5002;-80
2021/08/16 09:32:05;;;;;;;3.25;2.90;;;;;;;30.24;41.23;101317.97;144994;587;5002;-79
2021/08/16 09:34:48;;;;;;;3.95;3.00;;;;;;;30.37;41.24;101316.53;144994;603;5002;-81
2021/08/16 09:37:24;;;;;;;4.15;2.65;;;;;;;30.42;42.27;101316.34;144994;602;5002;-80
2021/08/16 09:40:17;;;;;;;4.20;2.70;;;;;;;30.49;42.87;101314.28;144994;571;5002;-80
2021/08/16 09:42:57;;;;;;;4.45;2.62;;;;;;;30.48;43.03;101317.88;144994;595;5002;-80
2021/08/16 09:45:32;;;;;;;3.00;2.25;;;;;;;30.47;42.93;101316.16;144994;611;5002;-79
2021/08/16 09:48:00;;;;;;;4.82;2.92;;;;;;;30.45;43.67;101315.31;144994;628;5002;-79
2021/08/16 09:50:50;;;;;;;3.22;2.80;;;;;;;30.46;42.63;101307.22;144994;578;5002;-79
2021/08/16 09:53:19;;;;;;;3.10;2.55;;;;;;;30.24;39.24;101293.88;144994;614;5002;-81
2021/08/16 09:55:48;;;;;;;3.53;2.70;;;;;;;30.37;40.87;101303.12;144994;572;5002;-80
2021/08/16 09:58:16;;;;;;;3.33;2.65;;;;;;;30.45;40.55;101296.59;144994;590;5002;-80
2021/08/16 10:00:45;;;;;;;3.25;2.78;;;;;;;30.46;38.73;101288.47;144994;564;5002;-79
2021/08/16 10:03:12;;;;;;;3.53;3.10;;;;;;;30.65;39.33;101282.31;144994;614;5002;-79
2021/08/16 10:05:40;;;;;;;5.00;2.83;;;;;;;30.74;38.83;101285.41;144994;586;5002;-79
2021/08/16 10:08:10;;;;;;;3.70;2.80;;;;;;;30.64;38.87;101284.13;144993;613;5002;-81
2021/08/16 10:10:42;;;;;;;2.95;2.62;;;;;;;30.76;39.73;101285.34;144994;585;5002;-81
2021/08/16 10:13:11;;;;;;;4.93;2.60;;;;;;;30.74;43.31;101282.75;144994;564;5002;-81
2021/08/16 10:15:43;;;;;;;4.43;2.50;;;;;;;30.87;42.58;101279.50;144993;575;5002;-79
2021/08/16 10:18:23;;;;;;;5.22;3.08;;;;;;;31.02;42.56;101278.81;144994;604;5002;-80
2021/08/16 10:20:50;;;;;;;4.62;2.28;;;;;;;31.04;42.96;101276.94;144994;571;5002;-79
2021/08/16 10:23:24;;;;;;;4.32;2.50;;;;;;;30.97;43.56;101278.16;144994;572;5002;-78
2021/08/16 10:25:51;;;;;;;;;;;;;;;30.97;43.89;101277.28;144998;913;5002;-78
2021/08/16 10:28:34;;;;;;;3.12;2.22;;;;;;;30.97;43.41;101280.81;144998;576;5002;-77
2021/08/16 10:31:03;;;;;;;4.30;3.00;;;;;;;30.89;43.54;101274.94;144994;592;5002;-78
2021/08/16 10:33:30;;;;;;;7.25;2.42;;;;;;;30.99;43.66;101270.94;144994;620;5002;-81
2021/08/16 10:35:58;;;;;;;3.70;2.05;;;;;;;30.99;43.93;101278.06;144994;588;5002;-78
2021/08/16 10:38:46;;;;;;;3.60;2.35;;;;;;;30.95;44.30;101269.28;144994;596;5002;-79
2021/08/16 10:41:23;;;;;;;3.62;2.03;;;;;;;30.88;44.56;101268.72;144994;620;5002;-81
2021/08/16 10:43:49;;;;;;;3.80;2.37;;;;;;;30.91;43.90;101267.72;144994;594;5002;-80
2021/08/16 10:46:21;;;;;;;5.65;2.47;;;;;;;30.89;44.74;101266.88;144994;579;5002;-80
2021/08/16 10:48:59;;;;;;;5.03;2.35;;;;;;;30.94;44.00;101251.44;144994;605;5002;-80
2021/08/16 10:51:26;;;;;;;3.35;2.40;;;;;;;30.78;45.19;101255.81;144994;594;5002;-79
2021/08/16 10:53:55;;;;;;;2.60;2.40;;;;;;;30.79;45.36;101253.06;144994;585;5002;-80
2021/08/16 10:56:24;;;;;;;4.65;2.90;;;;;;;30.85;45.24;101251.91;144994;639;5002;-80
2021/08/16 10:58:52;;;;;;;3.55;2.35;;;;;;;30.85;45.13;101242.06;144994;596;5002;-80
2021/08/16 11:01:36;;;;;;;5.65;2.60;;;;;;;30.90;45.81;101245.38;144993;575;5002;-81
2021/08/16 11:04:06;;;;;;;4.27;2.70;;;;;;;30.95;45.33;101245.16;144994;565;5002;-80
2021/08/16 11:06:33;;;;;;;6.35;2.30;;;;;;;30.89;45.26;101238.31;144994;632;5002;-80
2021/08/16 11:09:01;;;;;;;2.40;2.20;;;;;;;30.98;45.14;101231.66;144994;595;5002;-80
2021/08/16 11:11:29;;;;;;;4.62;2.17;;;;;;;30.97;45.37;101226.34;144994;628;5002;-78
2021/08/16 11:14:10;;;;;;;3.80;2.17;;;;;;;31.00;45.78;101228.91;144994;595;5002;-81
2021/08/16 11:16:49;;;;;;;5.47;2.20;;;;;;;30.97;45.45;101221.84;144994;570;4566;-79
2021/08/16 11:19:16;;;;;;;2.67;2.12;;;;;;;31.01;45.97;101226.13;144994;601;4572;-78
2021/08/16 11:22:02;;;;;;;3.83;2.30;;;;;;;30.92;46.42;101224.72;144994;619;4572;-80
2021/08/16 11:24:35;;;;;;;3.20;2.30;;;;;;;30.78;46.46;101218.28;144994;577;4576;-80
2021/08/16 11:27:06;;;;;;;4.20;2.30;;;;;;;30.68;47.06;101213.34;144992;641;6005;-81
2021/08/16 11:29:33;;;;;;;6.60;2.40;;;;;;;30.67;47.09;101217.00;144992;578;6004;-79
2021/08/16 11:32:02;;;;;;;2.70;2.22;;;;;;;30.75;46.74;101214.81;144992;583;6004;-80
2021/08/16 11:34:51;;;;;;;3.08;2.00;;;;;;;30.71;46.33;101215.91;144992;640;6004;-80
2021/08/16 11:37:20;;;;;;;3.10;2.30;;;;;;;30.82;45.82;101214.53;144992;611;6004;-80